createdAt,value
2018-06-24T00:00:51.609Z,0
2018-06-24T00:01:51.338Z,0
2018-06-24T00:02:51.083Z,0
2018-06-24T00:03:51.602Z,0
2018-06-24T00:04:51.343Z,0
2018-06-24T00:05:51.357Z,0
2018-06-24T00:06:51.084Z,0
2018-06-24T00:07:51.324Z,0
2018-06-24T00:08:51.358Z,0
2018-06-24T00:09:51.582Z,0
2018-06-24T00:10:51.336Z,0
2018-06-24T00:11:51.343Z,0
2018-06-24T00:12:51.590Z,0
2018-06-24T00:13:52.035Z,0
2018-06-24T00:14:51.059Z,0
2018-06-24T00:15:51.343Z,0
2018-06-24T00:16:51.569Z,0
2018-06-24T00:17:51.582Z,0
2018-06-24T00:18:51.568Z,0
2018-06-24T00:19:51.315Z,0
2018-06-24T00:20:51.561Z,0
2018-06-24T00:21:50.812Z,0
2018-06-24T00:22:51.295Z,0
2018-06-24T00:23:51.594Z,0
2018-06-24T00:24:51.335Z,0
2018-06-24T00:25:51.056Z,0
2018-06-24T00:26:51.049Z,0
2018-06-24T00:27:51.559Z,0
2018-06-24T00:28:51.304Z,0
2018-06-24T00:29:51.323Z,0
2018-06-24T00:30:51.048Z,0
2018-06-24T00:31:51.295Z,0
2018-06-24T00:32:51.314Z,0
2018-06-24T00:33:51.305Z,0
2018-06-24T00:34:51.304Z,0
2018-06-24T00:35:50.894Z,0
2018-06-24T00:36:51.043Z,0
2018-06-24T00:37:51.312Z,0
2018-06-24T00:38:51.069Z,0
2018-06-24T00:39:51.036Z,0
2018-06-24T00:40:51.289Z,0
2018-06-24T00:41:51.306Z,0
2018-06-24T00:42:51.287Z,0
2018-06-24T00:43:51.445Z,0
2018-06-24T00:44:51.278Z,0
2018-06-24T00:45:51.534Z,0
2018-06-24T00:46:50.774Z,0
2018-06-24T00:47:51.536Z,0
2018-06-24T00:48:51.263Z,0
2018-06-24T00:49:51.536Z,0
2018-06-24T00:50:51.275Z,0
2018-06-24T00:51:50.756Z,0
2018-06-24T00:52:51.276Z,0
2018-06-24T00:53:51.265Z,0
2018-06-24T00:54:51.524Z,0
2018-06-24T00:55:51.012Z,0
2018-06-24T00:56:51.520Z,0
2018-06-24T00:57:51.270Z,0
2018-06-24T00:58:51.261Z,0
2018-06-24T00:59:51.273Z,0
2018-06-24T01:00:51.537Z,0
2018-06-24T01:01:51.002Z,0
2018-06-24T01:02:51.523Z,0
2018-06-24T01:03:52.317Z,0
2018-06-24T01:04:51.270Z,0
2018-06-24T01:05:51.272Z,0
2018-06-24T01:06:51.259Z,0
2018-06-24T01:07:51.264Z,0
2018-06-24T01:08:51.275Z,0
2018-06-24T01:09:51.278Z,0
2018-06-24T01:10:50.996Z,0
2018-06-24T01:11:51.508Z,0
2018-06-24T01:12:51.506Z,0
2018-06-24T01:13:51.241Z,0
2018-06-24T01:14:51.269Z,0
2018-06-24T01:15:51.252Z,0
2018-06-24T01:16:51.484Z,0
2018-06-24T01:17:51.492Z,0
2018-06-24T01:18:50.997Z,0
2018-06-24T01:19:51.241Z,0
2018-06-24T01:20:51.490Z,0
2018-06-24T01:21:51.223Z,0
2018-06-24T01:22:51.246Z,0
2018-06-24T01:23:50.973Z,0
2018-06-24T01:24:51.241Z,0
2018-06-24T01:25:50.964Z,0
2018-06-24T01:26:50.722Z,0
2018-06-24T01:27:51.225Z,0
2018-06-24T01:28:50.965Z,0
2018-06-24T01:29:51.209Z,0
2018-06-24T01:30:51.214Z,0
2018-06-24T01:31:51.480Z,0
2018-06-24T01:32:50.959Z,0
2018-06-24T01:33:51.219Z,0
2018-06-24T01:34:52.253Z,0
2018-06-24T01:35:50.966Z,0
2018-06-24T01:36:50.967Z,0
2018-06-24T01:37:51.201Z,0
2018-06-24T01:38:51.212Z,0
2018-06-24T01:39:50.967Z,0
2018-06-24T01:40:51.194Z,0
2018-06-24T01:41:51.198Z,0
2018-06-24T01:42:51.200Z,0
2018-06-24T01:43:51.209Z,0
2018-06-24T01:44:51.748Z,0
2018-06-24T01:45:51.443Z,0
2018-06-24T01:46:51.206Z,0
2018-06-24T01:47:50.942Z,0
2018-06-24T01:48:51.444Z,0
2018-06-24T01:49:51.181Z,0
2018-06-24T01:50:51.450Z,0
2018-06-24T01:51:51.181Z,0
2018-06-24T01:52:51.184Z,0
2018-06-24T01:53:51.174Z,0
2018-06-24T01:54:50.702Z,0
2018-06-24T01:55:51.180Z,0
2018-06-24T01:56:50.914Z,0
2018-06-24T01:57:51.164Z,0
2018-06-24T01:58:51.417Z,0
2018-06-24T01:59:51.167Z,0
2018-06-24T02:00:51.167Z,0
2018-06-24T02:01:51.427Z,0
2018-06-24T02:02:50.927Z,0
2018-06-24T02:03:51.418Z,0
2018-06-24T02:04:50.683Z,0
2018-06-24T02:05:51.163Z,0
2018-06-24T02:06:51.173Z,0
2018-06-24T02:07:51.404Z,0
2018-06-24T02:08:51.178Z,0
2018-06-24T02:09:50.905Z,0
2018-06-24T02:10:51.154Z,0
2018-06-24T02:11:51.154Z,0
2018-06-24T02:12:51.158Z,0
2018-06-24T02:13:51.142Z,0
2018-06-24T02:14:51.692Z,0
2018-06-24T02:15:51.158Z,0
2018-06-24T02:16:51.386Z,0
2018-06-24T02:17:51.406Z,0
2018-06-24T02:18:51.134Z,0
2018-06-24T02:19:51.141Z,0
2018-06-24T02:20:50.873Z,0
2018-06-24T02:21:51.127Z,0
2018-06-24T02:22:51.382Z,0
2018-06-24T02:23:50.872Z,0
2018-06-24T02:24:51.131Z,0
2018-06-24T02:25:51.417Z,0
2018-06-24T02:26:51.133Z,0
2018-06-24T02:27:51.128Z,0
2018-06-24T02:28:50.870Z,0
2018-06-24T02:29:50.882Z,0
2018-06-24T02:30:51.373Z,0
2018-06-24T02:31:51.384Z,0
2018-06-24T02:32:51.373Z,0
2018-06-24T02:33:51.111Z,0
2018-06-24T02:34:51.381Z,0
2018-06-24T02:35:51.381Z,0
2018-06-24T02:36:51.359Z,0
2018-06-24T02:37:51.349Z,0
2018-06-24T02:38:51.100Z,0
2018-06-24T02:39:50.845Z,0
2018-06-24T02:40:51.353Z,0
2018-06-24T02:41:51.118Z,4
2018-06-24T02:42:50.843Z,4
2018-06-24T02:43:50.842Z,4
2018-06-24T02:44:50.869Z,4
2018-06-24T02:45:51.096Z,4
2018-06-24T02:46:51.092Z,0
2018-06-24T02:47:51.359Z,0
2018-06-24T02:48:51.097Z,4
2018-06-24T02:49:51.355Z,4
2018-06-24T02:50:51.151Z,4
2018-06-24T02:51:51.079Z,4
2018-06-24T02:52:50.817Z,4
2018-06-24T02:53:50.568Z,8
2018-06-24T02:54:51.071Z,8
2018-06-24T02:55:51.361Z,8
2018-06-24T02:56:51.346Z,8
2018-06-24T02:57:51.373Z,8
2018-06-24T02:58:51.062Z,12
2018-06-24T02:59:51.071Z,12
2018-06-24T03:00:51.331Z,12
2018-06-24T03:01:51.078Z,16
2018-06-24T03:02:51.330Z,16
2018-06-24T03:03:51.065Z,20
2018-06-24T03:04:51.361Z,24
2018-06-24T03:05:50.793Z,28
2018-06-24T03:06:51.345Z,32
2018-06-24T03:07:50.792Z,32
2018-06-24T03:08:51.092Z,36
2018-06-24T03:09:51.042Z,40
2018-06-24T03:10:51.058Z,44
2018-06-24T03:11:51.047Z,48
2018-06-24T03:12:50.544Z,56
2018-06-24T03:13:51.302Z,60
2018-06-24T03:14:51.032Z,68
2018-06-24T03:15:51.306Z,72
2018-06-24T03:16:51.119Z,80
2018-06-24T03:17:51.307Z,88
2018-06-24T03:18:51.292Z,96
2018-06-24T03:19:51.037Z,100
2018-06-24T03:20:51.304Z,108
2018-06-24T03:21:51.027Z,116
2018-06-24T03:22:51.084Z,124
2018-06-24T03:23:50.770Z,144
2018-06-24T03:24:51.038Z,156
2018-06-24T03:25:51.022Z,172
2018-06-24T03:26:51.020Z,180
2018-06-24T03:27:50.811Z,196
2018-06-24T03:28:51.018Z,212
2018-06-24T03:29:51.020Z,228
2018-06-24T03:30:51.035Z,240
2018-06-24T03:31:51.005Z,260
2018-06-24T03:32:51.011Z,276
2018-06-24T03:33:50.494Z,292
2018-06-24T03:34:50.998Z,312
2018-06-24T03:35:51.303Z,336
2018-06-24T03:36:50.755Z,364
2018-06-24T03:37:50.736Z,400
2018-06-24T03:38:51.001Z,432
2018-06-24T03:39:51.013Z,460
2018-06-24T03:40:51.252Z,500
2018-06-24T03:41:51.261Z,540
2018-06-24T03:42:51.243Z,572
2018-06-24T03:43:51.242Z,608
2018-06-24T03:44:50.981Z,648
2018-06-24T03:45:51.004Z,688
2018-06-24T03:46:50.728Z,728
2018-06-24T03:47:50.786Z,768
2018-06-24T03:48:50.980Z,812
2018-06-24T03:49:50.973Z,868
2018-06-24T03:50:50.996Z,920
2018-06-24T03:51:50.727Z,976
2018-06-24T03:52:50.963Z,1040
2018-06-24T03:53:50.717Z,1124
2018-06-24T03:54:50.721Z,1220
2018-06-24T03:55:50.965Z,1316
2018-06-24T03:56:50.965Z,1420
2018-06-24T03:57:50.976Z,1556
2018-06-24T03:58:51.218Z,1692
2018-06-24T03:59:51.210Z,1836
2018-06-24T04:00:50.709Z,1844
2018-06-24T04:01:50.970Z,1944
2018-06-24T04:02:50.959Z,2216
2018-06-24T04:03:50.962Z,2504
2018-06-24T04:04:51.145Z,2784
2018-06-24T04:05:50.709Z,3028
2018-06-24T04:06:51.202Z,3440
2018-06-24T04:07:50.712Z,3348
2018-06-24T04:08:51.213Z,3784
2018-06-24T04:09:51.207Z,4128
2018-06-24T04:10:50.702Z,4508
2018-06-24T04:11:50.949Z,4712
2018-06-24T04:12:50.692Z,4644
2018-06-24T04:13:51.215Z,4780
2018-06-24T04:14:50.462Z,4688
2018-06-24T04:15:51.361Z,4616
2018-06-24T04:16:50.946Z,4780
2018-06-24T04:17:50.947Z,4752
2018-06-24T04:18:50.944Z,4636
2018-06-24T04:19:50.944Z,4552
2018-06-24T04:20:51.199Z,4812
2018-06-24T04:21:50.962Z,6544
2018-06-24T04:22:50.940Z,6320
2018-06-24T04:23:51.212Z,6204
2018-06-24T04:24:50.961Z,6164
2018-06-24T04:25:51.244Z,5892
2018-06-24T04:26:51.236Z,4736
2018-06-24T04:27:50.709Z,5640
2018-06-24T04:28:50.957Z,4624
2018-06-24T04:29:50.963Z,4340
2018-06-24T04:30:50.749Z,5316
2018-06-24T04:31:50.705Z,6356
2018-06-24T04:32:50.704Z,5460
2018-06-24T04:33:50.976Z,5972
2018-06-24T04:34:50.960Z,4204
2018-06-24T04:35:51.219Z,4244
2018-06-24T04:36:50.960Z,4276
2018-06-24T04:37:51.232Z,4348
2018-06-24T04:38:50.710Z,4428
2018-06-24T04:39:50.710Z,4516
2018-06-24T04:40:50.961Z,4668
2018-06-24T04:41:50.980Z,4768
2018-06-24T04:42:50.975Z,5000
2018-06-24T04:43:50.965Z,7332
2018-06-24T04:44:50.960Z,5584
2018-06-24T04:45:52.310Z,5056
2018-06-24T04:46:51.227Z,4956
2018-06-24T04:47:51.242Z,4824
2018-06-24T04:48:51.240Z,4680
2018-06-24T04:49:50.979Z,4748
2018-06-24T04:50:50.980Z,4556
2018-06-24T04:51:51.212Z,4552
2018-06-24T04:52:51.241Z,4524
2018-06-24T04:53:51.240Z,4648
2018-06-24T04:54:51.246Z,4520
2018-06-24T04:55:50.984Z,4580
2018-06-24T04:56:50.986Z,4512
2018-06-24T04:57:51.048Z,4564
2018-06-24T04:58:51.049Z,4404
2018-06-24T04:59:50.987Z,4288
2018-06-24T05:00:50.998Z,4352
2018-06-24T05:01:51.326Z,4244
2018-06-24T05:02:50.987Z,4336
2018-06-24T05:03:51.000Z,4500
2018-06-24T05:04:51.247Z,4556
2018-06-24T05:05:50.731Z,4492
2018-06-24T05:06:51.288Z,4484
2018-06-24T05:07:51.264Z,4508
2018-06-24T05:08:50.997Z,4548
2018-06-24T05:09:51.011Z,4604
2018-06-24T05:10:50.993Z,4688
2018-06-24T05:11:51.256Z,4920
2018-06-24T05:12:50.996Z,5008
2018-06-24T05:13:51.244Z,5024
2018-06-24T05:14:51.245Z,5088
2018-06-24T05:15:51.799Z,5100
2018-06-24T05:16:51.268Z,5120
2018-06-24T05:17:51.260Z,5172
2018-06-24T05:18:50.995Z,5212
2018-06-24T05:19:50.771Z,5172
2018-06-24T05:20:50.770Z,5216
2018-06-24T05:21:50.997Z,5300
2018-06-24T05:22:50.999Z,5476
2018-06-24T05:23:50.999Z,5552
2018-06-24T05:24:51.263Z,5536
2018-06-24T05:25:51.264Z,5624
2018-06-24T05:26:51.251Z,5764
2018-06-24T05:27:51.010Z,5924
2018-06-24T05:28:51.006Z,5968
2018-06-24T05:29:51.014Z,6048
2018-06-24T05:30:51.001Z,6128
2018-06-24T05:31:51.008Z,6248
2018-06-24T05:32:51.005Z,6500
2018-06-24T05:33:51.001Z,6492
2018-06-24T05:34:51.267Z,6604
2018-06-24T05:35:51.005Z,6828
2018-06-24T05:36:51.006Z,6900
2018-06-24T05:37:51.453Z,7380
2018-06-24T05:38:51.306Z,6792
2018-06-24T05:39:50.554Z,6760
2018-06-24T05:40:51.265Z,6912
2018-06-24T05:41:51.052Z,6712
2018-06-24T05:42:51.025Z,6760
2018-06-24T05:43:51.277Z,6880
2018-06-24T05:44:51.271Z,7020
2018-06-24T05:45:51.276Z,7228
2018-06-24T05:46:51.026Z,7272
2018-06-24T05:47:51.278Z,7444
2018-06-24T05:48:51.481Z,7720
2018-06-24T05:49:51.024Z,7692
2018-06-24T05:50:51.037Z,7876
2018-06-24T05:51:51.028Z,8092
2018-06-24T05:52:51.313Z,8088
2018-06-24T05:53:51.308Z,8136
2018-06-24T05:54:51.045Z,8212
2018-06-24T05:55:51.050Z,8300
2018-06-24T05:56:50.790Z,8588
2018-06-24T05:57:51.305Z,9300
2018-06-24T05:58:50.786Z,9132
2018-06-24T05:59:51.038Z,9580
2018-06-24T06:00:51.044Z,9148
2018-06-24T06:01:51.325Z,9332
2018-06-24T06:02:51.207Z,8968
2018-06-24T06:03:51.308Z,8816
2018-06-24T06:04:51.063Z,9388
2018-06-24T06:05:50.826Z,9460
2018-06-24T06:06:51.074Z,8752
2018-06-24T06:07:50.808Z,8124
2018-06-24T06:08:51.310Z,8148
2018-06-24T06:09:51.059Z,8300
2018-06-24T06:10:51.320Z,9660
2018-06-24T06:11:51.117Z,9456
2018-06-24T06:12:51.328Z,12232
2018-06-24T06:13:51.069Z,13424
2018-06-24T06:23:49.013Z,15552
2018-06-24T06:24:49.763Z,15044
2018-06-24T06:25:49.501Z,15072
2018-06-24T06:26:49.586Z,14652
2018-06-24T06:27:49.249Z,14004
2018-06-24T06:28:49.499Z,14832
2018-06-24T06:29:49.527Z,15024
2018-06-24T06:30:49.782Z,14520
2018-06-24T06:31:49.518Z,15520
2018-06-24T06:32:49.520Z,15392
2018-06-24T06:33:49.522Z,14944
2018-06-24T06:34:49.030Z,14516
2018-06-24T06:35:49.538Z,13608
2018-06-24T06:36:49.748Z,13536
2018-06-24T06:37:49.542Z,13956
2018-06-24T06:38:49.544Z,14360
2018-06-24T06:39:49.825Z,14348
2018-06-24T06:40:49.829Z,14492
2018-06-24T06:41:49.563Z,13528
2018-06-24T06:42:49.565Z,13412
2018-06-24T06:43:49.842Z,13748
2018-06-24T06:44:49.598Z,14212
2018-06-24T06:45:50.227Z,14368
2018-06-24T06:46:49.096Z,14004
2018-06-24T06:47:49.590Z,13352
2018-06-24T06:48:49.866Z,13296
2018-06-24T06:49:49.883Z,12996
2018-06-24T06:50:49.628Z,12132
2018-06-24T06:51:49.350Z,13248
2018-06-24T06:52:49.610Z,14208
2018-06-24T06:53:49.639Z,14644
2018-06-24T06:54:49.370Z,14892
2018-06-24T06:55:49.640Z,13940
2018-06-24T06:56:49.641Z,12428
2018-06-24T06:57:50.165Z,13160
2018-06-24T06:58:49.418Z,13772
2018-06-24T06:59:49.934Z,14772
2018-06-24T07:00:49.672Z,14008
2018-06-24T07:01:49.945Z,12448
2018-06-24T07:02:49.690Z,12256
2018-06-24T07:03:49.688Z,12768
2018-06-24T07:04:49.693Z,13144
2018-06-24T07:05:49.870Z,13524
2018-06-24T07:06:49.448Z,12072
2018-06-24T07:07:49.705Z,10888
2018-06-24T07:08:49.991Z,10472
2018-06-24T07:09:49.448Z,10264
2018-06-24T07:10:49.456Z,10680
2018-06-24T07:11:49.719Z,10452
2018-06-24T07:12:49.992Z,9576
2018-06-24T07:13:49.213Z,9796
2018-06-24T07:14:49.471Z,9476
2018-06-24T07:15:49.984Z,10028
2018-06-24T07:16:49.489Z,10732
2018-06-24T07:17:49.742Z,10596
2018-06-24T07:18:49.753Z,10568
2018-06-24T07:19:49.999Z,10760
2018-06-24T07:20:50.017Z,10448
2018-06-24T07:21:50.017Z,9264
2018-06-24T07:22:49.521Z,9480
2018-06-24T07:23:51.078Z,8752
2018-06-24T07:24:49.278Z,8980
2018-06-24T07:25:49.785Z,9132
2018-06-24T07:26:50.050Z,9812
2018-06-24T07:27:50.363Z,9944
2018-06-24T07:28:49.794Z,9888
2018-06-24T07:29:49.795Z,9592
2018-06-24T07:30:49.786Z,10064
2018-06-24T07:31:49.796Z,9532
2018-06-24T07:32:50.051Z,9216
2018-06-24T07:33:50.562Z,9036
2018-06-24T07:34:49.560Z,8876
2018-06-24T07:35:49.564Z,9004
2018-06-24T07:36:50.064Z,9120
2018-06-24T07:37:49.856Z,9128
2018-06-24T07:38:49.605Z,9220
2018-06-24T07:39:50.075Z,9420
2018-06-24T07:40:49.852Z,10044
2018-06-24T07:41:49.832Z,10408
2018-06-24T07:42:49.591Z,11864
2018-06-24T07:43:50.092Z,11608
2018-06-24T07:44:49.592Z,10672
2018-06-24T07:45:49.608Z,10060
2018-06-24T07:46:50.119Z,9312
2018-06-24T07:47:49.857Z,9212
2018-06-24T07:48:49.599Z,9568
2018-06-24T07:49:50.155Z,9368
2018-06-24T07:50:49.623Z,9580
2018-06-24T07:51:49.878Z,9332
2018-06-24T07:52:50.118Z,9432
2018-06-24T07:53:51.187Z,9552
2018-06-24T07:54:49.893Z,9692
2018-06-24T07:55:50.133Z,9736
2018-06-24T07:56:49.892Z,9900
2018-06-24T07:57:50.145Z,10016
2018-06-24T07:58:50.157Z,10604
2018-06-24T07:59:49.393Z,11220
2018-06-24T08:00:49.658Z,11656
2018-06-24T08:01:49.646Z,11792
2018-06-24T08:02:49.902Z,11500
2018-06-24T08:03:49.905Z,11456
2018-06-24T08:04:50.177Z,11368
2018-06-24T08:05:49.924Z,11372
2018-06-24T08:06:49.930Z,12108
2018-06-24T08:07:49.937Z,12720
2018-06-24T08:08:49.677Z,13036
2018-06-24T08:09:49.931Z,12912
2018-06-24T08:10:49.683Z,13588
2018-06-24T08:11:50.186Z,13532
2018-06-24T08:12:49.678Z,12788
2018-06-24T08:13:49.694Z,11908
2018-06-24T08:14:49.710Z,12428
2018-06-24T08:15:49.685Z,11932
2018-06-24T08:16:49.963Z,11760
2018-06-24T08:17:49.724Z,11900
2018-06-24T08:18:49.962Z,11596
2018-06-24T08:19:49.974Z,11296
2018-06-24T08:20:49.724Z,11092
2018-06-24T08:21:49.985Z,11272
2018-06-24T08:22:49.865Z,11632
2018-06-24T08:23:49.729Z,12536
2018-06-24T08:24:49.477Z,11776
2018-06-24T08:25:49.986Z,12832
2018-06-24T08:26:50.266Z,13580
2018-06-24T08:27:50.288Z,12292
2018-06-24T08:28:50.268Z,11172
2018-06-24T08:29:49.512Z,11776
2018-06-24T08:30:50.009Z,12328
2018-06-24T08:31:50.629Z,11628
2018-06-24T08:32:50.020Z,12228
2018-06-24T08:33:49.796Z,11888
2018-06-24T08:34:50.268Z,14580
2018-06-24T08:35:50.290Z,13268
2018-06-24T08:36:50.042Z,14360
2018-06-24T08:37:50.043Z,15332
2018-06-24T08:38:49.792Z,12516
2018-06-24T08:39:50.046Z,12900
2018-06-24T08:40:50.327Z,11996
2018-06-24T08:41:50.292Z,12852
2018-06-24T08:42:50.303Z,12036
2018-06-24T08:43:49.819Z,12120
2018-06-24T08:44:50.871Z,11636
2018-06-24T08:45:49.811Z,12064
2018-06-24T08:46:50.331Z,11872
2018-06-24T08:47:49.823Z,11472
2018-06-24T08:48:50.086Z,11968
2018-06-24T08:49:50.082Z,11996
2018-06-24T08:50:50.350Z,11040
2018-06-24T08:51:49.835Z,9492
2018-06-24T08:52:50.104Z,10876
2018-06-24T08:53:50.118Z,11448
2018-06-24T08:54:50.363Z,10748
2018-06-24T08:55:50.118Z,11276
2018-06-24T08:56:50.139Z,11380
2018-06-24T08:57:50.390Z,11956
2018-06-24T08:58:50.387Z,11628
2018-06-24T08:59:49.884Z,11808
2018-06-24T09:00:50.305Z,12240
2018-06-24T09:01:50.140Z,11496
2018-06-24T09:02:50.405Z,13708
2018-06-24T09:03:49.688Z,13676
2018-06-24T09:04:50.146Z,10984
2018-06-24T09:05:49.952Z,12840
2018-06-24T09:06:49.937Z,13448
2018-06-24T09:07:50.153Z,13548
2018-06-24T09:08:50.169Z,14076
2018-06-24T09:09:50.439Z,14232
2018-06-24T09:10:49.933Z,13160
2018-06-24T09:11:50.446Z,13480
2018-06-24T09:12:49.689Z,14504
2018-06-24T09:13:49.953Z,14480
2018-06-24T09:14:50.260Z,14300
2018-06-24T09:15:50.285Z,14560
2018-06-24T09:16:50.464Z,13912
2018-06-24T09:17:50.204Z,14668
2018-06-24T09:18:49.966Z,14264
2018-06-24T09:19:50.213Z,11768
2018-06-24T09:20:50.220Z,14452
2018-06-24T09:21:49.980Z,15188
2018-06-24T09:22:49.969Z,14424
2018-06-24T09:23:50.491Z,15096
2018-06-24T09:24:50.492Z,14956
2018-06-24T09:25:50.512Z,15872
2018-06-24T09:26:50.496Z,16256
2018-06-24T09:27:50.606Z,17600
2018-06-24T09:28:50.006Z,15604
2018-06-24T09:29:50.265Z,15872
2018-06-24T09:30:50.377Z,15496
2018-06-24T09:31:50.284Z,14956
2018-06-24T09:32:49.772Z,15648
2018-06-24T09:33:50.291Z,16352
2018-06-24T09:34:50.590Z,14788
2018-06-24T09:35:50.296Z,15504
2018-06-24T09:36:50.035Z,14468
2018-06-24T09:37:50.296Z,14104
2018-06-24T09:38:50.306Z,13940
2018-06-24T09:39:50.304Z,13844
2018-06-24T09:40:50.621Z,14044
2018-06-24T09:41:50.559Z,14376
2018-06-24T09:42:50.069Z,14960
2018-06-24T09:43:49.810Z,15156
2018-06-24T09:44:50.084Z,15384
2018-06-24T09:45:50.573Z,16000
2018-06-24T09:46:50.335Z,16928
2018-06-24T09:47:50.590Z,16960
2018-06-24T09:48:50.336Z,17504
2018-06-24T09:49:50.082Z,16960
2018-06-24T09:50:50.351Z,16896
2018-06-24T09:51:50.351Z,17664
2018-06-24T09:52:50.215Z,17472
2018-06-24T09:53:50.631Z,16864
2018-06-24T09:54:50.381Z,16736
2018-06-24T09:55:50.416Z,16672
2018-06-24T09:56:50.388Z,17696
2018-06-24T09:57:50.139Z,16576
2018-06-24T09:58:50.131Z,16352
2018-06-24T09:59:50.400Z,15936
2018-06-24T10:00:50.682Z,15588
2018-06-24T10:01:50.189Z,15904
2018-06-24T10:02:50.385Z,15872
2018-06-24T10:03:50.415Z,15872
2018-06-24T10:04:50.415Z,16288
2018-06-24T10:05:50.400Z,16672
2018-06-24T10:06:50.675Z,16544
2018-06-24T10:07:50.430Z,15872
2018-06-24T10:08:50.187Z,15840
2018-06-24T10:09:51.473Z,15348
2018-06-24T10:10:49.921Z,15180
2018-06-24T10:11:50.180Z,15016
2018-06-24T10:12:50.446Z,14828
2018-06-24T10:13:50.201Z,14496
2018-06-24T10:14:50.474Z,14252
2018-06-24T10:15:50.192Z,13984
2018-06-24T10:16:50.211Z,13912
2018-06-24T10:17:50.208Z,13952
2018-06-24T10:18:50.724Z,14068
2018-06-24T10:19:50.727Z,14100
2018-06-24T10:20:50.493Z,14080
2018-06-24T10:21:50.474Z,14040
2018-06-24T10:53:07.571Z,11672
2018-06-24T10:54:07.689Z,11760
2018-06-24T10:55:07.486Z,11856
2018-06-24T10:56:07.389Z,12076
2018-06-24T10:57:07.401Z,12496
2018-06-24T10:58:07.387Z,13096
2018-06-24T10:59:07.387Z,13832
2018-06-24T11:00:07.117Z,14628
2018-06-24T11:01:07.620Z,15324
2018-06-24T11:02:07.603Z,16128
2018-06-24T11:03:07.402Z,16672
2018-06-24T11:04:07.402Z,17056
2018-06-24T11:05:07.394Z,17888
2018-06-24T11:06:07.646Z,17216
2018-06-24T11:07:07.147Z,17216
2018-06-24T11:08:07.126Z,17376
2018-06-24T11:09:07.668Z,16672
2018-06-24T11:10:06.888Z,16480
2018-06-24T11:11:07.152Z,15168
2018-06-24T11:12:07.161Z,14628
2018-06-24T11:13:07.426Z,14180
2018-06-24T11:14:07.417Z,13740
2018-06-24T11:15:07.175Z,13296
2018-06-24T11:16:07.499Z,12920
2018-06-24T11:17:07.681Z,12640
2018-06-24T11:18:07.448Z,12444
2018-06-24T11:19:07.171Z,12316
2018-06-24T11:20:07.194Z,12244
2018-06-24T11:21:07.471Z,12228
2018-06-24T11:22:06.943Z,12240
2018-06-24T11:23:07.459Z,12244
2018-06-24T11:24:07.478Z,12252
2018-06-24T11:25:07.197Z,12256
2018-06-24T11:26:07.542Z,12244
2018-06-24T11:27:07.589Z,11932
2018-06-24T11:28:06.986Z,11764
2018-06-24T11:29:07.472Z,11720
2018-06-24T11:30:07.490Z,11756
2018-06-24T11:31:08.020Z,11864
2018-06-24T11:32:07.635Z,12012
2018-06-24T11:33:07.530Z,12120
2018-06-24T11:34:07.259Z,12192
2018-06-24T11:35:07.252Z,12220
2018-06-24T11:36:06.991Z,12240
2018-06-24T11:37:08.027Z,12260
2018-06-24T11:38:07.248Z,12272
2018-06-24T11:39:07.593Z,12268
2018-06-24T11:40:07.858Z,12232
2018-06-24T11:41:07.781Z,12176
2018-06-24T11:42:07.544Z,12104
2018-06-24T11:43:07.551Z,12024
2018-06-24T11:44:07.033Z,11936
2018-06-24T11:45:07.531Z,11824
2018-06-24T11:46:07.537Z,11704
2018-06-24T11:47:07.533Z,11592
2018-06-24T11:48:07.316Z,11496
2018-06-24T11:49:07.832Z,11400
2018-06-24T11:50:07.299Z,11332
2018-06-24T11:51:07.567Z,11336
2018-06-24T11:52:07.793Z,11404
2018-06-24T11:53:10.008Z,11536
2018-06-24T11:54:07.808Z,11708
2018-06-24T11:55:07.818Z,11908
2018-06-24T11:56:07.876Z,12144
2018-06-24T11:57:07.748Z,12372
2018-06-24T11:58:07.828Z,12600
2018-06-24T11:59:07.600Z,12840
2018-06-24T12:00:07.613Z,13056
2018-06-24T12:01:07.599Z,13260
2018-06-24T12:02:07.733Z,13428
2018-06-24T12:03:07.856Z,13572
2018-06-24T12:04:07.746Z,13760
2018-06-24T12:05:07.625Z,13968
2018-06-24T12:06:07.603Z,14172
2018-06-24T12:07:07.856Z,14316
2018-06-24T12:08:07.845Z,14372
2018-06-24T12:09:07.378Z,14352
2018-06-24T12:10:07.610Z,14292
2018-06-24T12:11:07.397Z,14300
2018-06-24T12:12:07.646Z,14276
2018-06-24T12:13:07.622Z,14280
2018-06-24T12:14:07.636Z,14492
2018-06-24T12:15:07.634Z,14860
2018-06-24T12:16:07.899Z,15168
2018-06-24T12:17:07.875Z,15416
2018-06-24T12:18:07.569Z,15556
2018-06-24T12:19:07.407Z,15840
2018-06-24T12:20:07.370Z,15968
2018-06-24T12:21:07.419Z,15560
2018-06-24T12:22:07.906Z,15432
2018-06-24T12:23:07.660Z,15380
2018-06-24T12:24:07.437Z,15400
2018-06-24T12:25:07.423Z,16448
2018-06-24T12:26:07.520Z,15808
2018-06-24T12:27:07.903Z,15016
2018-06-24T12:28:07.670Z,14752
2018-06-24T12:29:07.925Z,14544
2018-06-24T12:30:08.084Z,14460
2018-06-24T12:31:07.686Z,14548
2018-06-24T12:32:07.697Z,14732
2018-06-24T12:33:07.166Z,14908
2018-06-24T12:34:07.688Z,15040
2018-06-24T12:35:07.712Z,15176
2018-06-24T12:36:07.491Z,15204
2018-06-24T12:37:07.697Z,15184
2018-06-24T12:38:07.457Z,15020
2018-06-24T12:39:07.189Z,14924
2018-06-24T12:40:07.736Z,14820
2018-06-24T12:41:07.239Z,14756
2018-06-24T12:42:07.480Z,14676
2018-06-24T12:43:08.108Z,14680
2018-06-24T12:44:07.977Z,14784
2018-06-24T12:45:07.480Z,14948
2018-06-24T12:46:07.718Z,15096
2018-06-24T12:47:07.488Z,15128
2018-06-24T12:48:07.752Z,14968
2018-06-24T12:49:07.223Z,14712
2018-06-24T12:50:07.502Z,14544
2018-06-24T12:51:07.988Z,14608
2018-06-24T12:52:07.754Z,14768
2018-06-24T12:53:08.806Z,14900
2018-06-24T12:54:07.523Z,14880
2018-06-24T12:55:07.806Z,14608
2018-06-24T12:56:07.525Z,14220
2018-06-24T12:57:07.785Z,13828
2018-06-24T12:58:07.605Z,13508
2018-06-24T12:59:09.033Z,13004
2018-06-24T13:00:09.846Z,12596
2018-06-24T13:01:07.563Z,12240
2018-06-24T13:02:07.824Z,11944
2018-06-24T13:03:07.786Z,11708
2018-06-24T13:04:07.291Z,11468
2018-06-24T13:05:07.618Z,11312
2018-06-24T13:06:07.583Z,11200
2018-06-24T13:07:07.897Z,11128
2018-06-24T13:08:07.823Z,11108
2018-06-24T13:09:07.822Z,11140
2018-06-24T13:10:07.819Z,11224
2018-06-24T13:11:07.578Z,11172
2018-06-24T13:12:07.611Z,11140
2018-06-24T13:13:07.578Z,11104
2018-06-24T13:14:07.713Z,11140
2018-06-24T13:15:08.073Z,11252
2018-06-24T13:16:07.601Z,11416
2018-06-24T13:17:07.829Z,11740
2018-06-24T13:18:07.598Z,11844
2018-06-24T13:19:07.848Z,11344
2018-06-24T13:20:07.647Z,10868
2018-06-24T13:21:07.915Z,10604
2018-06-24T13:22:08.119Z,10456
2018-06-24T13:23:08.959Z,10628
2018-06-24T13:24:08.135Z,10804
2018-06-24T13:25:08.017Z,11164
2018-06-24T13:26:07.884Z,10948
2018-06-24T13:27:07.631Z,11080
2018-06-24T13:28:07.890Z,11852
2018-06-24T13:29:07.876Z,11788
2018-06-24T13:30:07.881Z,11580
2018-06-24T13:31:07.665Z,11900
2018-06-24T13:32:08.237Z,11240
2018-06-24T13:33:07.901Z,10776
2018-06-24T13:34:07.642Z,10328
2018-06-24T13:35:07.890Z,9856
2018-06-24T13:36:07.896Z,9368
2018-06-24T13:37:07.657Z,9680
2018-06-24T13:38:07.667Z,9620
2018-06-24T13:39:07.916Z,9524
2018-06-24T13:40:07.697Z,9332
2018-06-24T13:41:08.264Z,9148
2018-06-24T13:42:07.614Z,9504
2018-06-24T13:43:07.927Z,9700
2018-06-24T13:44:07.928Z,9648
2018-06-24T13:45:08.079Z,9472
2018-06-24T13:46:07.684Z,9596
2018-06-24T13:47:07.945Z,9644
2018-06-24T13:48:07.933Z,9672
2018-06-24T13:49:07.696Z,9968
2018-06-24T13:50:08.073Z,10260
2018-06-24T13:51:07.705Z,10428
2018-06-24T13:52:07.946Z,10572
2018-06-24T13:53:08.753Z,10636
2018-06-24T13:54:07.679Z,8816
2018-06-24T13:55:08.369Z,10476
2018-06-24T13:56:07.965Z,10524
2018-06-24T13:57:07.735Z,10692
2018-06-24T13:58:08.623Z,10840
2018-06-24T13:59:07.984Z,11024
2018-06-24T14:00:08.158Z,11152
2018-06-24T14:01:07.737Z,11372
2018-06-24T14:02:07.999Z,11652
2018-06-24T14:03:08.239Z,11852
2018-06-24T14:04:08.546Z,11688
2018-06-24T14:05:07.750Z,11328